createdAt,value
2019-06-21T00:01:37.436Z,99.90
2019-06-21T00:04:06.476Z,99.90
2019-06-21T00:06:35.413Z,99.90
2019-06-21T00:09:05.427Z,99.90
2019-06-21T00:11:34.365Z,99.90
2019-06-21T00:14:03.353Z,99.90
2019-06-21T00:16:32.315Z,99.90
2019-06-21T00:19:01.246Z,99.90
2019-06-21T00:21:30.118Z,99.90
2019-06-21T00:23:59.010Z,99.90
2019-06-21T00:26:27.961Z,99.90
2019-06-21T00:28:57.239Z,99.90
2019-06-21T00:31:26.365Z,99.90
2019-06-21T00:33:55.217Z,99.90
2019-06-21T00:36:26.006Z,99.90
2019-06-21T00:38:54.787Z,99.90
2019-06-21T00:41:23.885Z,99.90
2019-06-21T00:43:53.043Z,99.90
2019-06-21T00:46:21.929Z,99.90
2019-06-21T00:48:50.852Z,99.90
2019-06-21T00:51:19.732Z,99.90
2019-06-21T00:53:48.810Z,99.90
2019-06-21T00:56:17.688Z,99.90
2019-06-21T00:58:46.471Z,99.90
2019-06-21T01:01:15.341Z,99.90
2019-06-21T01:03:44.250Z,99.90
2019-06-21T01:06:13.118Z,99.90
2019-06-21T01:08:41.925Z,99.90
2019-06-21T01:11:10.758Z,99.90
2019-06-21T01:13:39.579Z,99.90
2019-06-21T01:16:08.528Z,99.90
2019-06-21T01:18:37.741Z,99.90
2019-06-21T01:21:08.352Z,99.90
2019-06-21T01:23:37.506Z,99.90
2019-06-21T01:26:06.498Z,99.90
2019-06-21T01:28:35.407Z,99.90
2019-06-21T01:31:04.349Z,99.90
2019-06-21T01:33:33.250Z,99.90
2019-06-21T01:36:02.136Z,99.90
2019-06-21T01:38:31.218Z,99.90
2019-06-21T01:41:00.040Z,99.90
2019-06-21T01:43:28.945Z,99.90
2019-06-21T01:45:58.116Z,99.90
2019-06-21T01:48:27.269Z,99.90
2019-06-21T01:50:56.102Z,99.90
2019-06-21T01:53:25.025Z,99.90
2019-06-21T01:55:54.685Z,99.90
2019-06-21T01:58:23.536Z,99.90
2019-06-21T02:00:52.620Z,99.90
2019-06-21T02:03:21.468Z,99.90
2019-06-21T02:05:50.279Z,99.90
2019-06-21T02:08:32.885Z,99.90
2019-06-21T02:10:49.601Z,99.90
2019-06-21T02:13:18.403Z,99.90
2019-06-21T02:15:47.874Z,99.90
2019-06-21T02:18:16.860Z,99.90
2019-06-21T02:20:45.931Z,99.90
2019-06-21T02:23:14.776Z,99.90
2019-06-21T02:25:43.811Z,99.90
2019-06-21T02:28:12.628Z,99.90
2019-06-21T02:30:41.574Z,99.90
2019-06-21T02:33:10.448Z,99.90
2019-06-21T02:35:39.454Z,99.90
2019-06-21T02:38:08.574Z,99.90
2019-06-21T02:40:37.474Z,99.90
2019-06-21T02:43:06.748Z,99.90
2019-06-21T02:45:35.642Z,99.90
2019-06-21T02:48:04.729Z,99.90
2019-06-21T02:50:34.949Z,99.90
2019-06-21T02:53:03.917Z,99.90
2019-06-21T02:55:32.824Z,99.90
2019-06-21T02:58:02.209Z,99.90
2019-06-21T03:00:38.069Z,99.90
2019-06-21T03:03:07.187Z,99.90
2019-06-21T03:05:36.257Z,99.90
2019-06-21T03:08:05.446Z,99.90
2019-06-21T03:10:34.653Z,99.90
2019-06-21T03:13:03.870Z,99.90
2019-06-21T03:15:32.658Z,99.90
2019-06-21T03:18:01.880Z,99.90
2019-06-21T03:20:31.017Z,99.90
2019-06-21T03:22:59.919Z,99.90
2019-06-21T03:25:28.775Z,99.90
2019-06-21T03:27:57.688Z,99.90
2019-06-21T03:30:26.606Z,99.90
2019-06-21T03:32:55.725Z,99.90
2019-06-21T03:35:24.585Z,99.90
2019-06-21T03:37:53.560Z,99.90
2019-06-21T03:40:26.595Z,99.90
2019-06-21T03:42:55.674Z,99.90
2019-06-21T03:45:25.369Z,99.90
2019-06-21T03:47:54.241Z,99.90
2019-06-21T03:50:48.171Z,99.90
2019-06-21T03:53:17.056Z,99.90
2019-06-21T03:55:45.979Z,99.90
2019-06-21T03:58:14.915Z,99.90
2019-06-21T04:00:43.905Z,99.90
2019-06-21T04:03:13.203Z,99.90
2019-06-21T04:05:42.042Z,99.90
2019-06-21T04:08:10.975Z,99.90
2019-06-21T04:10:40.086Z,99.90
2019-06-21T04:13:09.158Z,99.90
2019-06-21T04:15:38.213Z,99.90
2019-06-21T04:18:07.020Z,99.90
2019-06-21T04:20:36.014Z,99.90
2019-06-21T04:23:04.927Z,99.90
2019-06-21T04:25:33.690Z,99.90
2019-06-21T04:28:02.544Z,99.90
2019-06-21T04:30:50.897Z,99.90
2019-06-21T04:33:19.785Z,99.90
2019-06-21T04:35:48.574Z,99.90
2019-06-21T04:38:17.797Z,99.90
2019-06-21T04:40:46.705Z,99.90
2019-06-21T04:43:16.182Z,99.90
2019-06-21T04:45:44.972Z,99.90
2019-06-21T04:48:13.759Z,99.90
2019-06-21T04:50:42.971Z,99.90
2019-06-21T04:53:13.322Z,99.90
2019-06-21T04:55:42.599Z,99.90
2019-06-21T04:58:11.604Z,99.90
2019-06-21T05:00:40.913Z,99.90
2019-06-21T05:03:09.852Z,99.90
2019-06-21T05:05:38.644Z,99.90
2019-06-21T05:08:07.545Z,99.90
2019-06-21T05:10:36.405Z,99.90
2019-06-21T05:13:05.279Z,99.90
2019-06-21T05:15:34.138Z,99.90
2019-06-21T05:18:03.080Z,99.90
2019-06-21T05:20:34.744Z,99.90
2019-06-21T05:23:03.642Z,99.40
2019-06-21T05:25:32.681Z,99.90
2019-06-21T05:28:01.484Z,99.90
2019-06-21T05:30:30.802Z,99.90
2019-06-21T05:33:01.249Z,99.90
2019-06-21T05:35:30.127Z,99.90
2019-06-21T05:37:58.900Z,99.90
2019-06-21T05:40:27.695Z,99.90
2019-06-21T05:42:56.535Z,99.50
2019-06-21T05:45:25.704Z,99.90
2019-06-21T05:47:54.503Z,99.80
2019-06-21T05:50:23.298Z,92.60
2019-06-21T05:52:52.520Z,87.80
2019-06-21T05:55:21.282Z,85.30
2019-06-21T05:57:50.087Z,92.90
2019-06-21T06:00:19.027Z,91.70
2019-06-21T06:02:47.873Z,92.80
2019-06-21T06:05:16.665Z,87.10
2019-06-21T06:07:45.534Z,91.10
2019-06-21T06:10:14.448Z,88.10
2019-06-21T06:12:43.295Z,80.40
2019-06-21T06:15:12.304Z,86.60
2019-06-21T06:17:41.107Z,89.10
2019-06-21T06:20:10.294Z,91.90
2019-06-21T06:22:39.288Z,83.60
2019-06-21T06:25:08.982Z,86.30
2019-06-21T06:27:38.451Z,82.00
2019-06-21T06:30:09.488Z,84.80
2019-06-21T06:32:38.317Z,83.80
2019-06-21T06:35:08.091Z,78.10
2019-06-21T06:37:36.991Z,74.80
2019-06-21T06:40:06.483Z,77.40
2019-06-21T06:42:35.291Z,66.40
2019-06-21T06:45:04.503Z,73.40
2019-06-21T06:47:33.420Z,64.90
2019-06-21T06:50:02.308Z,50.10
2019-06-21T06:52:31.360Z,54.70
2019-06-21T06:55:00.366Z,59.70
2019-06-21T06:57:29.205Z,54.40
2019-06-21T06:59:57.971Z,59.10
2019-06-21T07:02:26.753Z,63.40
2019-06-21T07:04:55.588Z,64.70
2019-06-21T07:07:24.429Z,61.20
2019-06-21T07:09:53.167Z,52.20
2019-06-21T07:12:22.338Z,45.00
2019-06-21T07:14:51.300Z,39.10
2019-06-21T07:17:20.048Z,37.40
2019-06-21T07:19:48.779Z,26.40
2019-06-21T07:22:17.587Z,36.90
2019-06-21T07:24:46.663Z,31.50
2019-06-21T07:27:15.483Z,33.30
2019-06-21T07:29:44.395Z,34.50
2019-06-21T07:32:13.180Z,39.10
2019-06-21T07:34:42.005Z,37.30
2019-06-21T07:37:10.820Z,41.00
2019-06-21T07:39:39.843Z,41.50
2019-06-21T07:42:08.614Z,31.10
2019-06-21T07:44:37.444Z,23.50
2019-06-21T07:47:06.271Z,19.60
2019-06-21T07:49:35.230Z,22.30
2019-06-21T07:52:04.103Z,25.20
2019-06-21T07:54:32.895Z,26.90
2019-06-21T07:57:06.908Z,28.80
2019-06-21T07:59:32.148Z,22.90
2019-06-21T08:02:00.922Z,29.40
2019-06-21T08:04:29.753Z,34.80
2019-06-21T08:06:58.780Z,33.50
2019-06-21T08:09:27.530Z,29.40
2019-06-21T08:12:10.198Z,18.80
2019-06-21T08:14:26.746Z,20.00
2019-06-21T08:16:55.791Z,24.10
2019-06-21T08:19:24.866Z,25.40
2019-06-21T08:21:53.900Z,24.70
2019-06-21T08:24:22.900Z,21.30
2019-06-21T08:26:51.712Z,18.10
2019-06-21T08:29:20.421Z,14.00
2019-06-21T08:31:49.865Z,17.20
2019-06-21T08:34:18.983Z,15.60
2019-06-21T08:36:47.785Z,14.10
2019-06-21T08:39:16.968Z,10.80
2019-06-21T08:41:46.310Z,16.00
2019-06-21T08:44:16.609Z,15.00
2019-06-21T08:46:45.622Z,14.30
2019-06-21T08:49:14.450Z,16.40
2019-06-21T08:51:43.216Z,11.30
2019-06-21T08:54:13.438Z,12.60
2019-06-21T08:56:42.529Z,16.50
2019-06-21T08:59:12.891Z,13.50
2019-06-21T09:01:41.871Z,13.30
2019-06-21T09:04:11.669Z,12.30
2019-06-21T09:06:41.913Z,12.50
2019-06-21T09:09:11.819Z,9.30
2019-06-21T09:11:40.680Z,7.80
2019-06-21T09:14:10.371Z,10.80
2019-06-21T09:16:39.950Z,13.80
2019-06-21T09:19:09.793Z,10.10
2019-06-21T09:21:39.231Z,14.90
2019-06-21T09:24:08.785Z,12.90
2019-06-21T09:26:37.830Z,10.00
2019-06-21T09:29:08.059Z,11.60
2019-06-21T09:31:37.392Z,8.60
2019-06-21T09:34:07.340Z,9.10
2019-06-21T09:36:36.594Z,12.90
2019-06-21T09:39:08.261Z,6.90
2019-06-21T09:41:37.544Z,6.30
2019-06-21T09:44:09.078Z,4.50
2019-06-21T09:46:36.788Z,3.00
2019-06-21T09:49:07.089Z,1.00
2019-06-21T09:51:36.496Z,1.00
2019-06-21T09:54:06.891Z,1.00
2019-06-21T09:56:35.756Z,1.00
2019-06-21T09:59:06.893Z,1.00
2019-06-21T10:01:35.387Z,1.00
2019-06-21T10:04:05.756Z,1.00
2019-06-21T10:06:34.733Z,1.20
2019-06-21T10:09:05.376Z,1.40
2019-06-21T10:11:34.231Z,4.00
2019-06-21T10:14:04.743Z,6.70
2019-06-21T10:16:33.742Z,8.50
2019-06-21T10:19:03.499Z,9.40
2019-06-21T10:21:32.360Z,12.10
2019-06-21T10:24:02.106Z,7.50
2019-06-21T10:26:30.952Z,8.00
2019-06-21T10:29:00.984Z,9.20
2019-06-21T10:31:49.849Z,2.40
2019-06-21T10:34:18.845Z,1.00
2019-06-21T10:36:47.878Z,1.00
2019-06-21T10:39:16.635Z,1.00
2019-06-21T10:41:45.414Z,1.00
2019-06-21T10:44:14.252Z,3.70
2019-06-21T10:46:43.088Z,1.10
2019-06-21T10:49:11.936Z,1.00
2019-06-21T10:51:41.149Z,1.60
2019-06-21T10:54:09.904Z,1.00
2019-06-21T10:56:38.689Z,1.00
2019-06-21T10:59:07.812Z,1.00
2019-06-21T11:01:36.544Z,1.30
2019-06-21T11:04:05.677Z,1.60
2019-06-21T11:06:34.516Z,3.70
2019-06-21T11:09:05.067Z,4.00
2019-06-21T11:11:33.897Z,5.80
2019-06-21T11:14:08.317Z,3.70
2019-06-21T11:16:33.171Z,7.00
2019-06-21T11:19:03.433Z,4.80
2019-06-21T11:21:32.854Z,8.90
2019-06-21T11:24:02.937Z,11.70
2019-06-21T11:26:32.328Z,11.90
2019-06-21T11:29:04.076Z,12.70
2019-06-21T11:31:31.682Z,11.60
2019-06-21T11:34:02.094Z,11.50
2019-06-21T11:36:31.028Z,8.80
2019-06-21T11:39:01.465Z,5.40
2019-06-21T11:41:30.560Z,5.50
2019-06-21T11:44:18.570Z,3.60
2019-06-21T11:46:29.944Z,4.10
2019-06-21T11:49:00.125Z,3.20
2019-06-21T11:51:29.200Z,3.60
2019-06-21T11:53:58.744Z,1.40
2019-06-21T11:56:28.548Z,2.30
2019-06-21T11:58:58.856Z,5.00
2019-06-21T12:01:29.404Z,3.10
2019-06-21T12:04:01.272Z,4.80
2019-06-21T12:06:28.891Z,3.00
2019-06-21T12:08:59.876Z,4.70
2019-06-21T12:11:28.136Z,4.90
2019-06-21T12:13:56.938Z,5.10
2019-06-21T12:16:25.713Z,7.50
2019-06-21T12:18:54.473Z,7.40
2019-06-21T12:21:23.336Z,6.60
2019-06-21T12:23:52.072Z,7.10
2019-06-21T12:26:20.787Z,6.70
2019-06-21T12:28:49.520Z,7.30
2019-06-21T12:31:18.248Z,5.70
2019-06-21T12:33:47.116Z,8.70
2019-06-21T12:36:16.202Z,8.90
2019-06-21T12:38:45.032Z,6.90
2019-06-21T12:41:13.856Z,6.80
2019-06-21T12:43:43.016Z,10.40
2019-06-21T12:46:14.545Z,10.10
2019-06-21T12:48:42.248Z,10.60
2019-06-21T12:51:11.077Z,10.70
2019-06-21T12:53:39.913Z,11.50
2019-06-21T12:56:08.813Z,9.80
2019-06-21T12:58:37.529Z,7.80
2019-06-21T13:01:06.278Z,7.40
2019-06-21T13:03:35.083Z,6.80
2019-06-21T13:06:06.429Z,8.90
2019-06-21T13:08:34.452Z,9.60
2019-06-21T13:11:03.560Z,7.30
2019-06-21T13:13:32.469Z,7.70
2019-06-21T13:16:02.810Z,7.40
2019-06-21T13:18:32.027Z,10.00
2019-06-21T13:21:02.122Z,6.70
2019-06-21T13:23:31.093Z,5.10
2019-06-21T13:26:01.611Z,8.40
2019-06-21T13:28:30.531Z,6.60
2019-06-21T13:31:00.611Z,7.50
2019-06-21T13:33:30.290Z,5.40
2019-06-21T13:36:00.651Z,5.90
2019-06-21T13:38:29.759Z,6.00
2019-06-21T13:40:59.889Z,8.10
2019-06-21T13:43:29.127Z,7.80
2019-06-21T13:45:59.601Z,7.10
2019-06-21T13:48:28.360Z,6.90
2019-06-21T13:50:57.812Z,7.90
2019-06-21T13:53:27.870Z,6.40
2019-06-21T13:55:57.971Z,6.20
2019-06-21T13:58:27.097Z,5.10
2019-06-21T14:00:56.402Z,6.20
2019-06-21T14:03:26.524Z,5.20
2019-06-21T14:05:56.383Z,6.70
2019-06-21T14:08:25.745Z,5.80
2019-06-21T14:10:54.536Z,9.50
2019-06-21T14:13:23.570Z,6.70
2019-06-21T14:15:52.395Z,6.90
2019-06-21T14:18:21.192Z,7.00
2019-06-21T14:20:49.981Z,4.80
2019-06-21T14:23:19.023Z,2.10
2019-06-21T14:25:56.332Z,5.20
2019-06-21T14:28:25.667Z,4.40
2019-06-21T14:30:55.373Z,6.10
2019-06-21T14:33:24.951Z,5.50
2019-06-21T14:35:56.638Z,5.10
2019-06-21T14:38:25.860Z,4.20
2019-06-21T14:40:54.674Z,5.00
2019-06-21T14:43:23.624Z,6.70
2019-06-21T14:45:56.633Z,4.50
2019-06-21T14:48:23.335Z,3.30
2019-06-21T14:50:52.481Z,3.20
2019-06-21T14:53:21.294Z,5.40
2019-06-21T14:55:50.053Z,7.20
2019-06-21T14:58:18.809Z,4.00
2019-06-21T15:00:47.611Z,5.60
2019-06-21T15:03:16.590Z,3.90
2019-06-21T15:05:45.326Z,6.30
2019-06-21T15:08:14.105Z,6.60
2019-06-21T15:10:42.941Z,5.30
2019-06-21T15:13:20.008Z,5.10
2019-06-21T15:15:42.229Z,5.80
2019-06-21T15:18:11.291Z,5.00
2019-06-21T15:20:40.280Z,6.00
2019-06-21T15:23:09.101Z,5.70
2019-06-21T15:25:37.887Z,3.90
2019-06-21T15:28:06.717Z,3.00
2019-06-21T15:30:35.565Z,2.70
2019-06-21T15:33:04.518Z,3.50
2019-06-21T15:35:33.564Z,2.70
2019-06-21T15:38:03.984Z,3.50
2019-06-21T15:40:33.215Z,4.70
2019-06-21T15:43:04.063Z,4.40
2019-06-21T15:45:32.465Z,2.80
2019-06-21T15:48:03.116Z,6.10
2019-06-21T15:50:32.256Z,4.30
2019-06-21T15:53:02.070Z,4.50
2019-06-21T15:55:30.976Z,5.00
2019-06-21T15:58:01.333Z,6.20
2019-06-21T16:00:30.615Z,4.60
2019-06-21T16:03:00.208Z,3.90
2019-06-21T16:05:30.120Z,4.40
2019-06-21T16:08:00.404Z,3.10
2019-06-21T16:10:29.386Z,5.00
2019-06-21T16:12:58.280Z,5.30
2019-06-21T16:15:27.264Z,6.30
2019-06-21T16:17:55.995Z,4.40
2019-06-21T16:20:24.720Z,5.50
2019-06-21T16:22:53.439Z,5.00
2019-06-21T16:25:22.648Z,5.20
2019-06-21T16:27:51.669Z,4.80
2019-06-21T16:30:20.934Z,4.40
2019-06-21T16:32:49.770Z,3.00
2019-06-21T16:35:18.732Z,3.70
2019-06-21T16:37:47.809Z,3.20
2019-06-21T16:40:16.980Z,4.00
2019-06-21T16:42:45.986Z,3.00
2019-06-21T16:45:15.061Z,2.80
2019-06-21T16:47:43.795Z,1.90
2019-06-21T16:50:12.687Z,2.80
2019-06-21T16:52:42.064Z,1.50
2019-06-21T16:55:11.155Z,2.50
2019-06-21T16:57:40.288Z,3.20
2019-06-21T17:00:09.965Z,2.60
2019-06-21T17:02:38.767Z,2.70
2019-06-21T17:05:08.136Z,3.40
2019-06-21T17:07:36.946Z,3.10
2019-06-21T17:10:07.010Z,2.90
2019-06-21T17:12:36.062Z,3.00
2019-06-21T17:15:05.467Z,4.50
2019-06-21T17:17:34.367Z,6.10
2019-06-21T17:20:05.256Z,5.90
2019-06-21T17:22:34.171Z,3.70
2019-06-21T17:25:03.071Z,4.10
2019-06-21T17:27:32.274Z,3.20
2019-06-21T17:30:01.068Z,3.40
2019-06-21T17:32:30.224Z,4.50
2019-06-21T17:34:59.640Z,4.30
2019-06-21T17:37:28.908Z,4.80
2019-06-21T17:39:57.904Z,5.50
2019-06-21T17:42:27.625Z,6.70
2019-06-21T17:45:00.296Z,6.00
2019-06-21T17:47:37.954Z,8.40
2019-06-21T17:49:59.648Z,8.80
2019-06-21T17:52:28.554Z,8.80
2019-06-21T17:54:57.793Z,7.30
2019-06-21T17:57:26.829Z,4.20
2019-06-21T17:59:55.806Z,4.60
2019-06-21T18:02:24.881Z,7.90
2019-06-21T18:04:53.807Z,7.70
2019-06-21T18:07:24.278Z,6.60
2019-06-21T18:09:53.156Z,7.00
2019-06-21T18:12:22.062Z,7.10
2019-06-21T18:14:51.053Z,8.40
2019-06-21T18:17:19.919Z,6.60
2019-06-21T18:19:48.817Z,8.60
2019-06-21T18:22:17.669Z,10.80
2019-06-21T18:24:46.463Z,10.90
2019-06-21T18:27:15.445Z,11.60
2019-06-21T18:29:44.267Z,12.40
2019-06-21T18:32:13.122Z,11.90
2019-06-21T18:34:41.982Z,13.30
2019-06-21T18:37:10.831Z,13.50
2019-06-21T18:39:39.635Z,14.40
2019-06-21T18:42:08.521Z,13.90
2019-06-21T18:44:37.367Z,13.00
2019-06-21T18:47:06.319Z,14.20
2019-06-21T18:49:35.079Z,15.50
2019-06-21T18:52:03.912Z,13.50
2019-06-21T18:54:32.763Z,16.00
2019-06-21T18:57:01.790Z,18.40
2019-06-21T18:59:30.544Z,20.60
2019-06-21T19:01:59.373Z,18.00
2019-06-21T19:04:28.246Z,19.30
2019-06-21T19:06:57.053Z,21.40
2019-06-21T19:09:25.813Z,23.00
2019-06-21T19:11:54.568Z,21.30
2019-06-21T19:14:23.326Z,25.90
2019-06-21T19:16:52.205Z,28.40
2019-06-21T19:19:21.003Z,31.80
2019-06-21T19:21:49.751Z,33.00
2019-06-21T19:24:18.766Z,34.20
2019-06-21T19:26:47.586Z,37.80
2019-06-21T19:29:16.472Z,34.10
2019-06-21T19:31:45.352Z,35.30
2019-06-21T19:34:14.414Z,37.60
2019-06-21T19:37:03.342Z,35.40
2019-06-21T19:39:33.070Z,38.60
2019-06-21T19:42:01.924Z,38.40
2019-06-21T19:44:30.751Z,39.40
2019-06-21T19:46:59.581Z,38.90
2019-06-21T19:49:28.670Z,41.80
2019-06-21T19:51:57.387Z,41.20
2019-06-21T19:54:26.290Z,44.80
2019-06-21T19:56:55.347Z,44.70
2019-06-21T19:59:24.166Z,45.80
2019-06-21T20:01:53.030Z,51.00
2019-06-21T20:04:21.841Z,52.00
2019-06-21T20:06:50.909Z,52.30
2019-06-21T20:09:19.723Z,55.80
2019-06-21T20:11:48.635Z,61.40
2019-06-21T20:14:17.564Z,60.90
2019-06-21T20:16:46.698Z,62.90
2019-06-21T20:19:16.317Z,61.20
2019-06-21T20:21:45.149Z,63.40
2019-06-21T20:24:14.201Z,66.10
2019-06-21T20:26:43.271Z,62.30
2019-06-21T20:29:12.096Z,63.50
2019-06-21T20:31:41.147Z,65.10
2019-06-21T20:34:10.093Z,67.80
2019-06-21T20:36:39.475Z,68.40
2019-06-21T20:39:08.635Z,68.70
2019-06-21T20:41:37.402Z,70.20
2019-06-21T20:44:06.297Z,71.70
2019-06-21T20:46:35.445Z,72.90
2019-06-21T20:49:13.866Z,73.30
2019-06-21T20:51:35.716Z,72.70
2019-06-21T20:54:04.682Z,73.80
2019-06-21T20:56:33.598Z,73.10
2019-06-21T20:59:02.360Z,73.20
2019-06-21T21:01:34.036Z,74.30
2019-06-21T21:04:02.859Z,74.40
2019-06-21T21:06:31.673Z,76.00
2019-06-21T21:09:00.498Z,77.00
2019-06-21T21:11:29.573Z,76.80
2019-06-21T21:13:58.331Z,76.50
2019-06-21T21:16:27.205Z,75.20
2019-06-21T21:18:56.232Z,77.00
2019-06-21T21:21:24.951Z,74.30
2019-06-21T21:23:54.026Z,74.30
2019-06-21T21:26:22.896Z,75.60
2019-06-21T21:28:51.617Z,76.40
2019-06-21T21:31:20.471Z,77.30
2019-06-21T21:33:49.570Z,78.90
2019-06-21T21:36:18.346Z,80.60
2019-06-21T21:38:47.187Z,79.80
2019-06-21T21:41:16.004Z,80.50
2019-06-21T21:43:45.138Z,82.60
2019-06-21T21:46:14.145Z,80.90
2019-06-21T21:48:43.140Z,82.00
2019-06-21T21:51:12.013Z,82.50
2019-06-21T21:53:40.881Z,80.80
2019-06-21T21:56:09.934Z,80.10
2019-06-21T21:58:38.761Z,81.40
2019-06-21T22:01:07.867Z,82.70
2019-06-21T22:03:36.847Z,81.80
2019-06-21T22:06:05.640Z,82.10
2019-06-21T22:08:34.696Z,84.90
2019-06-21T22:11:03.731Z,85.70
2019-06-21T22:13:35.505Z,85.70
2019-06-21T22:16:04.778Z,85.90
2019-06-21T22:18:34.156Z,86.80
2019-06-21T22:21:02.924Z,86.50
2019-06-21T22:23:31.655Z,88.00
2019-06-21T22:26:00.425Z,86.70
2019-06-21T22:28:29.992Z,84.10
2019-06-21T22:30:58.735Z,85.60
2019-06-21T22:33:27.895Z,86.10
2019-06-21T22:35:57.032Z,85.20
2019-06-21T22:38:25.818Z,86.30
2019-06-21T22:40:54.905Z,86.20
2019-06-21T22:43:23.727Z,86.50
2019-06-21T22:45:52.771Z,86.90
2019-06-21T22:48:21.599Z,86.80
2019-06-21T22:50:50.700Z,87.00
2019-06-21T22:53:19.443Z,87.60
2019-06-21T22:55:48.395Z,86.80
2019-06-21T22:58:17.395Z,88.40
2019-06-21T23:00:46.236Z,87.60
2019-06-21T23:03:15.133Z,88.30
2019-06-21T23:05:43.968Z,88.80
2019-06-21T23:08:12.772Z,89.00
2019-06-21T23:10:41.707Z,90.00
2019-06-21T23:13:10.480Z,90.90
2019-06-21T23:15:39.304Z,91.00
2019-06-21T23:18:08.028Z,91.60
2019-06-21T23:20:36.857Z,91.90
2019-06-21T23:23:25.022Z,92.70
2019-06-21T23:25:54.203Z,91.90
2019-06-21T23:28:22.931Z,91.40
2019-06-21T23:30:51.961Z,91.00
2019-06-21T23:33:20.842Z,89.80
2019-06-21T23:35:49.631Z,90.20
2019-06-21T23:38:18.660Z,90.10
2019-06-21T23:40:47.453Z,89.00
2019-06-21T23:43:16.504Z,88.30
2019-06-21T23:45:45.244Z,86.60
2019-06-21T23:48:16.170Z,87.40
2019-06-21T23:50:48.191Z,87.40
2019-06-21T23:53:15.021Z,86.70
2019-06-21T23:55:43.840Z,85.70
2019-06-21T23:58:12.576Z,85.80
